createdAt,value
2016-06-13T00:00:25.059Z,17.12
2016-06-13T00:01:25.063Z,17.03
2016-06-13T00:04:25.180Z,17.08
2016-06-13T00:05:25.122Z,17.14
2016-06-13T00:06:25.515Z,17.12
2016-06-13T00:08:25.317Z,16.98
2016-06-13T00:09:25.149Z,16.98
2016-06-13T00:10:25.152Z,17.01
2016-06-13T00:11:26.265Z,17.06
2016-06-13T00:12:25.174Z,16.98
2016-06-13T00:13:24.912Z,17.03
2016-06-13T00:14:24.711Z,16.98
2016-06-13T00:15:25.480Z,17.08
2016-06-13T00:16:25.624Z,17
2016-06-13T00:18:25.302Z,16.98
2016-06-13T00:19:26.289Z,16.96
2016-06-13T00:20:25.293Z,16.96
2016-06-13T00:21:25.702Z,17.06
2016-06-13T00:22:25.471Z,17.03
2016-06-13T00:23:40.165Z,16.93
2016-06-13T00:24:39.761Z,16.94
2016-06-13T00:25:26.136Z,16.96
2016-06-13T00:26:25.514Z,16.96
2016-06-13T00:27:25.736Z,16.97
2016-06-13T00:29:25.508Z,16.97
2016-06-13T00:30:25.307Z,17
2016-06-13T00:31:25.529Z,16.96
2016-06-13T00:32:25.533Z,16.91
2016-06-13T00:33:25.348Z,17
2016-06-13T00:34:25.617Z,16.98
2016-06-13T00:35:25.776Z,16.97
2016-06-13T00:36:25.764Z,16.96
2016-06-13T00:37:25.564Z,16.98
2016-06-13T00:38:25.598Z,16.97
2016-06-13T00:39:25.398Z,16.97
2016-06-13T00:40:25.605Z,16.96
2016-06-13T00:41:26.435Z,16.98
2016-06-13T00:42:25.438Z,17
2016-06-13T00:43:25.629Z,17.03
2016-06-13T00:44:25.851Z,16.89
2016-06-13T00:45:25.650Z,16.93
2016-06-13T00:46:25.451Z,16.88
2016-06-13T00:47:25.656Z,16.94
2016-06-13T00:48:25.660Z,16.89
2016-06-13T00:49:25.460Z,16.91
2016-06-13T00:50:25.885Z,16.89
2016-06-13T00:51:25.903Z,16.91
2016-06-13T00:52:25.688Z,16.91
2016-06-13T00:53:25.706Z,16.89
2016-06-13T00:54:25.913Z,16.88
2016-06-13T00:55:27.197Z,16.88
2016-06-13T00:56:25.560Z,16.85
2016-06-13T00:57:25.938Z,16.91
2016-06-13T00:58:25.535Z,16.83
2016-06-13T00:59:25.553Z,16.93
2016-06-13T01:00:25.760Z,16.93
2016-06-13T01:01:25.763Z,16.91
2016-06-13T01:02:25.125Z,16.89
2016-06-13T01:03:25.581Z,16.88
2016-06-13T01:04:25.990Z,16.96
2016-06-13T01:05:25.807Z,16.96
2016-06-13T01:06:25.809Z,16.94
2016-06-13T01:07:25.718Z,17
2016-06-13T01:08:54.193Z,16.98
2016-06-13T01:10:25.633Z,16.98
2016-06-13T01:12:25.656Z,17
2016-06-13T01:13:25.690Z,17.01
2016-06-13T01:14:26.130Z,17
2016-06-13T01:15:25.743Z,17.01
2016-06-13T01:16:40.905Z,16.98
2016-06-13T01:17:40.033Z,16.94
2016-06-13T01:18:25.799Z,16.96
2016-06-13T01:19:25.708Z,17.03
2016-06-13T01:21:53.906Z,16.91
2016-06-13T01:22:25.921Z,16.93
2016-06-13T01:23:25.815Z,16.89
2016-06-13T01:24:25.833Z,16.89
2016-06-13T01:25:40.792Z,16.91
2016-06-13T01:26:26.370Z,16.89
2016-06-13T01:27:25.796Z,17
2016-06-13T01:28:26.408Z,16.88
2016-06-13T01:29:26.661Z,16.94
2016-06-13T01:30:25.820Z,16.91
2016-06-13T01:32:26.248Z,16.89
2016-06-13T01:33:25.861Z,16.89
2016-06-13T01:34:25.880Z,16.88
2016-06-13T01:35:25.882Z,16.91
2016-06-13T01:37:25.874Z,16.93
2016-06-13T01:38:25.908Z,16.93
2016-06-13T01:39:25.911Z,16.85
2016-06-13T01:41:26.089Z,16.81
2016-06-13T01:42:26.139Z,16.91
2016-06-13T01:44:32.238Z,16.81
2016-06-13T01:45:26.164Z,16.81
2016-06-13T01:46:26.963Z,16.76
2016-06-13T01:47:26.185Z,16.81
2016-06-13T01:48:26.000Z,16.76
2016-06-13T01:49:25.988Z,16.81
2016-06-13T01:50:26.007Z,16.75
2016-06-13T01:51:26.212Z,16.96
2016-06-13T01:52:26.606Z,16.89
2016-06-13T01:54:26.035Z,16.94
2016-06-13T01:55:26.037Z,16.78
2016-06-13T01:56:40.541Z,16.76
2016-06-13T01:57:26.247Z,16.76
2016-06-13T02:00:40.162Z,16.81
2016-06-13T02:01:40.557Z,16.75
2016-06-13T02:02:25.621Z,16.86
2016-06-13T02:03:26.546Z,16.76
2016-06-13T02:04:26.738Z,16.71
2016-06-13T02:05:26.334Z,16.83
2016-06-13T02:06:26.572Z,16.75
2016-06-13T02:07:26.762Z,16.81
2016-06-13T02:08:26.968Z,16.81
2016-06-13T02:09:26.581Z,16.79
2016-06-13T02:10:26.365Z,16.78
2016-06-13T02:12:26.199Z,16.79
2016-06-13T02:13:26.187Z,16.79
2016-06-13T02:14:26.205Z,16.78
2016-06-13T02:15:26.412Z,16.78
2016-06-13T02:16:27.055Z,16.78
2016-06-13T02:17:26.058Z,16.78
2016-06-13T02:18:26.452Z,16.73
2016-06-13T02:19:25.768Z,16.79
2016-06-13T02:20:26.474Z,16.79
2016-06-13T02:21:55.027Z,16.75
2016-06-13T02:22:26.496Z,16.81
2016-06-13T02:23:27.124Z,16.7
2016-06-13T02:25:26.317Z,16.73
2016-06-13T02:26:26.524Z,16.64
2016-06-13T02:27:26.323Z,16.81
2016-06-13T02:28:26.342Z,16.79
2016-06-13T02:29:26.534Z,16.6
2016-06-13T02:30:40.598Z,16.73
2016-06-13T02:32:40.855Z,16.73
2016-06-13T02:33:40.436Z,16.75
2016-06-13T02:34:26.360Z,16.64
2016-06-13T02:35:26.614Z,16.67
2016-06-13T02:36:26.805Z,16.66
2016-06-13T02:38:26.607Z,16.75
2016-06-13T02:40:26.629Z,16.63
2016-06-13T02:41:27.195Z,16.66
2016-06-13T02:42:26.432Z,16.63
2016-06-13T02:43:25.952Z,16.73
2016-06-13T02:44:26.455Z,16.67
2016-06-13T02:45:26.457Z,16.71
2016-06-13T02:46:26.679Z,16.7
2016-06-13T02:47:26.464Z,16.76
2016-06-13T02:48:26.342Z,16.66
2016-06-13T02:49:26.890Z,16.64
2016-06-13T02:50:26.503Z,16.71
2016-06-13T02:52:27.104Z,16.68
2016-06-13T02:53:26.560Z,16.79
2016-06-13T02:55:27.160Z,16.71
2016-06-13T02:56:40.834Z,16.71
2016-06-13T02:57:26.759Z,16.79
2016-06-13T02:59:26.813Z,16.68
2016-06-13T03:00:26.816Z,16.73
2016-06-13T03:01:26.599Z,16.68
2016-06-13T03:02:26.806Z,16.76
2016-06-13T03:03:26.841Z,16.66
2016-06-13T03:04:26.844Z,16.75
2016-06-13T03:05:27.034Z,16.73
2016-06-13T03:07:26.712Z,16.78
2016-06-13T03:08:27.075Z,16.7
2016-06-13T03:09:26.890Z,16.68
2016-06-13T03:10:26.940Z,16.73
2016-06-13T03:11:26.709Z,16.75
2016-06-13T03:12:26.916Z,16.71
2016-06-13T03:13:26.886Z,16.71
2016-06-13T03:14:27.312Z,16.71
2016-06-13T03:15:26.706Z,16.71
2016-06-13T03:16:26.942Z,16.71
2016-06-13T03:17:27.524Z,16.67
2016-06-13T03:18:26.715Z,16.76
2016-06-13T03:19:26.733Z,16.71
2016-06-13T03:20:26.815Z,16.71
2016-06-13T03:21:26.287Z,16.88
2016-06-13T03:22:26.821Z,16.82
2016-06-13T03:23:26.824Z,16.78
2016-06-13T03:24:41.295Z,16.83
2016-06-13T03:25:27.018Z,16.78
2016-06-13T03:26:27.379Z,16.83
2016-06-13T03:27:27.045Z,16.81
2016-06-13T03:28:27.730Z,16.94
2016-06-13T03:29:27.163Z,16.86
2016-06-13T03:30:27.207Z,16.91
2016-06-13T03:31:27.438Z,16.83
2016-06-13T03:32:27.265Z,16.89
2016-06-13T03:33:27.499Z,16.94
2016-06-13T03:34:27.096Z,16.93
2016-06-13T03:35:27.534Z,16.89
2016-06-13T03:36:27.177Z,16.98
2016-06-13T03:37:27.174Z,16.98
2016-06-13T03:38:27.416Z,16.96
2016-06-13T03:39:27.206Z,16.98
2016-06-13T03:40:27.230Z,17
2016-06-13T03:41:41.864Z,17
2016-06-13T03:43:27.672Z,16.96
2016-06-13T03:44:27.880Z,16.98
2016-06-13T03:45:28.088Z,17.01
2016-06-13T03:46:27.265Z,16.94
2016-06-13T03:47:27.301Z,16.93
2016-06-13T03:48:41.399Z,16.91
2016-06-13T03:49:27.308Z,16.94
2016-06-13T03:50:27.328Z,17.01
2016-06-13T03:51:27.332Z,17.01
2016-06-13T03:52:27.336Z,17.06
2016-06-13T03:53:27.369Z,16.97
2016-06-13T03:54:27.358Z,17.01
2016-06-13T03:55:27.375Z,16.96
2016-06-13T03:56:27.473Z,16.97
2016-06-13T03:57:26.945Z,17.01
2016-06-13T03:58:27.791Z,17.03
2016-06-13T03:59:41.498Z,17.03
2016-06-13T04:00:41.704Z,17.04
2016-06-13T04:01:27.425Z,16.96
2016-06-13T04:02:27.616Z,17.07
2016-06-13T04:03:27.682Z,16.96
2016-06-13T04:04:27.450Z,17.01
2016-06-13T04:05:27.517Z,16.96
2016-06-13T04:06:27.487Z,16.96
2016-06-13T04:07:27.460Z,17.04
2016-06-13T04:08:27.682Z,17.03
2016-06-13T04:09:27.496Z,17.03
2016-06-13T04:10:41.594Z,17.04
2016-06-13T04:11:41.816Z,16.98
2016-06-13T04:12:28.178Z,16.96
2016-06-13T04:13:41.603Z,17.01
2016-06-13T04:14:41.809Z,17.14
2016-06-13T04:15:42.031Z,17.12
2016-06-13T04:16:28.613Z,17.12
2016-06-13T04:17:27.568Z,17.11
2016-06-13T04:18:42.071Z,17.08
2016-06-13T04:19:27.591Z,17.08
2016-06-13T04:20:27.641Z,17.04
2016-06-13T04:21:41.893Z,17.11
2016-06-13T04:22:27.630Z,17.15
2016-06-13T04:23:27.633Z,17.08
2016-06-13T04:24:27.637Z,17.12
2016-06-13T04:25:27.656Z,17.16
2016-06-13T04:26:27.923Z,17.19
2016-06-13T04:27:28.974Z,17.08
2016-06-13T04:28:27.883Z,17.08
2016-06-13T04:29:27.683Z,17.06
2016-06-13T04:30:27.702Z,17.08
2016-06-13T04:31:27.706Z,17.12
2016-06-13T04:32:27.786Z,17.14
2016-06-13T04:34:27.245Z,17.18
2016-06-13T04:35:27.951Z,17.15
2016-06-13T04:36:28.362Z,17.22
2016-06-13T04:37:27.785Z,17.18
2016-06-13T04:38:28.164Z,17.16
2016-06-13T04:39:27.964Z,17.18
2016-06-13T04:40:27.983Z,17.28
2016-06-13T04:41:30.252Z,17.23
2016-06-13T04:42:27.926Z,17.19
2016-06-13T04:43:28.414Z,17.23
2016-06-13T04:44:28.012Z,17.25
2016-06-13T04:45:27.826Z,17.31
2016-06-13T04:46:41.923Z,17.33
2016-06-13T04:47:27.833Z,17.31
2016-06-13T04:48:27.694Z,17.36
2016-06-13T04:49:41.776Z,17.3
2016-06-13T04:50:42.091Z,17.41
2016-06-13T04:51:27.861Z,17.41
2016-06-13T04:53:27.898Z,17.44
2016-06-13T04:54:29.120Z,17.44
2016-06-13T04:55:28.154Z,17.52
2016-06-13T04:56:27.969Z,17.52
2016-06-13T04:57:27.973Z,17.55
2016-06-13T04:58:27.976Z,17.63
2016-06-13T04:59:27.947Z,17.55
2016-06-13T05:00:27.810Z,17.59
2016-06-13T05:01:27.970Z,17.7
2016-06-13T05:02:28.238Z,17.68
2016-06-13T05:03:28.007Z,17.74
2016-06-13T05:04:28.229Z,17.78
2016-06-13T05:05:27.996Z,17.82
2016-06-13T05:06:28.329Z,17.84
2016-06-13T05:08:28.085Z,17.77
2016-06-13T05:09:42.119Z,17.79
2016-06-13T05:10:42.387Z,17.82
2016-06-13T05:11:28.890Z,17.97
2016-06-13T05:13:28.115Z,17.96
2016-06-13T05:14:41.885Z,17.93
2016-06-13T05:15:28.716Z,17.97
2016-06-13T05:16:28.312Z,18
2016-06-13T05:17:56.319Z,18
2016-06-13T05:19:28.369Z,18.07
2016-06-13T05:20:28.168Z,18.1
2016-06-13T05:21:28.187Z,18.12
2016-06-13T05:22:28.190Z,18.08
2016-06-13T05:23:28.381Z,18.11
2016-06-13T05:24:28.399Z,18.25
2016-06-13T05:25:28.230Z,18.21
2016-06-13T05:26:28.406Z,18.21
2016-06-13T05:27:29.019Z,18.26
2016-06-13T05:28:28.239Z,18.29
2016-06-13T05:29:28.633Z,18.15
2016-06-13T05:30:28.887Z,18.29
2016-06-13T05:32:28.690Z,18.33
2016-06-13T05:34:28.165Z,18.35
2016-06-13T05:35:28.371Z,18.36
2016-06-13T05:36:28.952Z,18.44
2016-06-13T05:38:28.333Z,18.5
2016-06-13T05:39:28.555Z,18.41
2016-06-13T05:40:28.354Z,18.39
2016-06-13T05:41:28.576Z,18.47
2016-06-13T05:42:28.471Z,18.5
2016-06-13T05:43:28.583Z,18.33
2016-06-13T05:44:28.399Z,18.42
2016-06-13T05:45:28.589Z,18.36
2016-06-13T05:46:28.405Z,18.32
2016-06-13T05:47:56.801Z,18.32
2016-06-13T05:48:28.629Z,18.32
2016-06-13T05:49:28.445Z,18.33
2016-06-13T05:50:28.339Z,18.3
2016-06-13T05:51:28.920Z,18.33
2016-06-13T05:52:28.876Z,18.17
2016-06-13T05:54:29.102Z,18.14
2016-06-13T05:55:28.526Z,18.3
2016-06-13T05:56:28.763Z,18.21
2016-06-13T05:57:28.579Z,18.17
2016-06-13T05:58:43.020Z,18.2
2016-06-13T05:59:42.835Z,18.21
2016-06-13T06:00:42.666Z,18.26
2016-06-13T06:02:43.282Z,18.18
2016-06-13T06:03:29.269Z,18.14
2016-06-13T06:04:29.241Z,18.03
2016-06-13T06:05:28.619Z,18
2016-06-13T06:06:28.639Z,17.95
2016-06-13T06:07:28.859Z,17.99
2016-06-13T06:09:28.803Z,17.96
2016-06-13T06:10:28.666Z,17.93
2016-06-13T06:11:28.685Z,17.92
2016-06-13T06:12:29.406Z,17.92
2016-06-13T06:13:28.691Z,17.9
2016-06-13T06:14:29.100Z,17.87
2016-06-13T06:15:29.103Z,17.84
2016-06-13T06:16:28.934Z,17.84
2016-06-13T06:17:29.109Z,17.86
2016-06-13T06:18:28.940Z,17.81
2016-06-13T06:19:32.756Z,17.79
2016-06-13T06:20:29.040Z,17.84
2016-06-13T06:21:28.980Z,17.82
2016-06-13T06:22:28.843Z,17.78
2016-06-13T06:23:29.409Z,17.77
2016-06-13T06:24:42.865Z,17.77
2016-06-13T06:25:28.805Z,17.77
2016-06-13T06:26:28.543Z,17.74
2016-06-13T06:27:29.015Z,17.72
2016-06-13T06:28:42.924Z,17.74
2016-06-13T06:29:57.008Z,17.72
2016-06-13T06:30:43.524Z,17.84
2016-06-13T06:31:28.371Z,17.78
2016-06-13T06:32:29.264Z,17.79
2016-06-13T06:33:29.314Z,17.84
2016-06-13T06:34:29.350Z,17.82
2016-06-13T06:35:29.853Z,17.78
2016-06-13T06:36:29.152Z,17.81
2016-06-13T06:37:29.186Z,17.86
2016-06-13T06:38:43.611Z,17.9
2016-06-13T06:39:28.958Z,17.92
2016-06-13T06:40:29.180Z,17.95
2016-06-13T06:41:28.792Z,17.89
2016-06-13T06:42:29.920Z,17.95
2016-06-13T06:45:29.195Z,18.08
2016-06-13T06:46:29.011Z,18.11
2016-06-13T06:47:43.311Z,18.11
2016-06-13T06:48:29.345Z,18.1
2016-06-13T06:49:29.864Z,18.25
2016-06-13T06:50:29.241Z,18.17
2016-06-13T06:51:29.448Z,18.2
2016-06-13T06:52:29.061Z,18.15
2016-06-13T06:53:29.298Z,18.27
2016-06-13T06:54:29.114Z,18.32
2016-06-13T06:55:29.491Z,18.37
2016-06-13T06:56:29.276Z,18.3
2016-06-13T06:57:29.654Z,18.35
2016-06-13T06:58:29.126Z,18.44
2016-06-13T06:59:29.316Z,18.44
2016-06-13T07:00:29.350Z,18.55
2016-06-13T07:01:29.151Z,18.6
2016-06-13T07:02:29.356Z,18.55
2016-06-13T07:03:29.188Z,18.52
2016-06-13T07:04:29.020Z,18.52
2016-06-13T07:05:29.179Z,18.52
2016-06-13T07:06:29.401Z,18.51
2016-06-13T07:07:29.326Z,18.54
2016-06-13T07:08:43.735Z,18.57
2016-06-13T07:09:43.535Z,18.52
2016-06-13T07:10:29.460Z,18.6
2016-06-13T07:11:29.494Z,18.55
2016-06-13T07:12:29.919Z,18.6
2016-06-13T07:13:29.687Z,18.63
2016-06-13T07:14:29.301Z,18.6
2016-06-13T07:15:29.303Z,18.63
2016-06-13T07:17:29.560Z,18.58
2016-06-13T07:18:28.828Z,18.63
2016-06-13T07:19:29.347Z,18.63
2016-06-13T07:20:29.599Z,18.62
2016-06-13T07:21:29.587Z,18.63
2016-06-13T07:22:29.372Z,18.62
2016-06-13T07:23:29.578Z,18.58
2016-06-13T07:25:29.803Z,18.73
2016-06-13T07:26:29.399Z,18.69
2016-06-13T07:27:29.121Z,18.65
2016-06-13T07:28:29.641Z,18.81
2016-06-13T07:29:29.456Z,18.8
2016-06-13T07:30:43.786Z,18.8
2016-06-13T07:31:29.664Z,18.85
2016-06-13T07:32:29.667Z,18.9
2016-06-13T07:33:43.499Z,18.87
2016-06-13T07:34:29.486Z,18.88
2016-06-13T07:35:43.568Z,19.02
2016-06-13T07:36:29.774Z,19.14
2016-06-13T07:37:44.261Z,19.26
2016-06-13T07:38:29.233Z,19.28
2016-06-13T07:39:29.752Z,19.32
2016-06-13T07:40:43.833Z,19.47
2016-06-13T07:41:29.556Z,19.46
2016-06-13T07:42:44.058Z,19.62
2016-06-13T07:43:29.608Z,19.68
2016-06-13T07:44:29.627Z,19.73
2016-06-13T07:45:43.895Z,19.86
2016-06-13T07:46:29.773Z,19.81
2016-06-13T07:47:30.277Z,19.87
2016-06-13T07:48:30.092Z,19.99
2016-06-13T07:49:29.658Z,19.98
2016-06-13T07:50:30.504Z,20.17
2016-06-13T07:51:29.882Z,20.18
2016-06-13T07:52:29.729Z,20.21
2016-06-13T07:53:29.702Z,20.35
2016-06-13T07:54:29.704Z,20.39
2016-06-13T07:55:30.019Z,20.35
2016-06-13T07:56:29.727Z,20.41
2016-06-13T07:57:29.636Z,20.52
2016-06-13T07:58:44.325Z,20.54
2016-06-13T07:59:29.501Z,20.7
2016-06-13T08:00:29.739Z,20.72
2016-06-13T08:01:44.492Z,20.8
2016-06-13T08:02:29.838Z,20.89
2016-06-13T08:05:44.175Z,21.03
2016-06-13T08:06:44.444Z,21.09
2016-06-13T08:09:29.923Z,21.16
2016-06-13T08:10:29.925Z,21.21
2016-06-13T08:12:30.072Z,21.25
2016-06-13T08:13:30.575Z,21.31
2016-06-13T08:14:29.999Z,21.35
2016-06-13T08:15:30.191Z,21.28
2016-06-13T08:16:30.849Z,21.31
2016-06-13T08:18:30.450Z,21.24
2016-06-13T08:19:30.031Z,21.31
2016-06-13T08:21:31.741Z,21.27
2016-06-13T08:22:44.165Z,21.16
2016-06-13T08:24:30.140Z,21.24
2016-06-13T08:25:30.361Z,21.29
2016-06-13T08:26:30.553Z,21.29
2016-06-13T08:27:30.165Z,21.34
2016-06-13T08:28:30.245Z,21.27
2016-06-13T08:29:30.374Z,21.27
2016-06-13T08:30:31.002Z,21.37
2016-06-13T08:31:44.521Z,21.31
2016-06-13T08:33:30.418Z,21.32
2016-06-13T08:34:30.436Z,21.34
2016-06-13T08:35:30.580Z,21.38
2016-06-13T08:36:30.271Z,21.38
2016-06-13T08:37:30.478Z,21.4
2016-06-13T08:38:30.277Z,21.38
2016-06-13T08:39:30.295Z,21.38
2016-06-13T08:40:44.846Z,21.43
2016-06-13T08:41:44.615Z,21.47
2016-06-13T08:42:30.882Z,21.46
2016-06-13T08:44:30.405Z,21.52
2016-06-13T08:45:30.377Z,21.52
2016-06-13T08:46:29.926Z,21.52
2016-06-13T08:47:30.929Z,21.46
2016-06-13T08:48:31.479Z,21.47
2016-06-13T08:49:31.077Z,21.43
2016-06-13T08:50:30.438Z,21.38
2016-06-13T08:51:30.879Z,21.37
2016-06-13T08:52:30.617Z,21.32
2016-06-13T08:53:30.480Z,21.31
2016-06-13T08:54:30.497Z,21.27
2016-06-13T08:55:30.501Z,21.28
2016-06-13T08:56:30.723Z,21.27
2016-06-13T08:58:31.307Z,21.35
2016-06-13T09:00:31.594Z,21.31
2016-06-13T09:01:31.052Z,21.43
2016-06-13T09:02:30.741Z,21.49
2016-06-13T09:03:30.822Z,21.53
2016-06-13T09:04:30.685Z,21.52
2016-06-13T09:05:30.642Z,21.61
2016-06-13T09:06:31.269Z,21.8
2016-06-13T09:07:31.085Z,21.77
2016-06-13T09:08:30.901Z,21.94
2016-06-13T09:09:30.685Z,22.02
2016-06-13T09:10:45.032Z,22.05
2016-06-13T09:11:30.221Z,22.18
2016-06-13T09:12:30.741Z,22.2
2016-06-13T09:13:31.103Z,22.31
2016-06-13T09:14:30.762Z,22.39
2016-06-13T09:16:45.488Z,22.45
2016-06-13T09:17:45.084Z,22.45
2016-06-13T09:18:45.290Z,22.54
2016-06-13T09:19:31.278Z,22.52
2016-06-13T09:20:30.875Z,22.57
2016-06-13T09:21:31.080Z,22.6
2016-06-13T09:22:30.881Z,22.67
2016-06-13T09:23:31.103Z,22.7
2016-06-13T09:24:31.105Z,22.72
2016-06-13T09:25:30.921Z,22.79
2016-06-13T09:27:45.490Z,22.92
2016-06-13T09:28:30.977Z,22.92
2016-06-13T09:29:30.981Z,22.85
2016-06-13T09:30:45.905Z,23.02
2016-06-13T09:31:31.049Z,23
2016-06-13T09:32:45.084Z,23
2016-06-13T09:33:45.525Z,23.04
2016-06-13T09:34:30.903Z,23
2016-06-13T09:36:31.314Z,23.09
2016-06-13T09:37:31.630Z,23.15
2016-06-13T09:38:31.508Z,23.17
2016-06-13T09:39:31.105Z,23.25
2016-06-13T09:40:31.139Z,23.25
2016-06-13T09:41:31.533Z,23.25
2016-06-13T09:42:31.192Z,23.25
2016-06-13T09:43:31.774Z,23.4
2016-06-13T09:44:30.730Z,23.46
2016-06-13T09:45:31.436Z,23.48
2016-06-13T09:46:30.751Z,23.5
2016-06-13T09:47:31.224Z,23.65
2016-06-13T09:48:45.336Z,23.6
2016-06-13T09:49:31.307Z,23.73
2016-06-13T09:50:32.311Z,23.72
2016-06-13T09:51:32.095Z,23.75
2016-06-13T09:52:31.333Z,23.85
2016-06-13T09:53:31.554Z,23.79
2016-06-13T09:54:31.557Z,23.79
2016-06-13T09:55:45.374Z,23.75
2016-06-13T09:56:31.360Z,23.73
2016-06-13T09:57:31.644Z,23.7
2016-06-13T09:58:31.508Z,23.61
2016-06-13T09:59:31.619Z,23.69
2016-06-13T10:00:31.653Z,23.66
2016-06-13T10:01:45.735Z,23.6
2016-06-13T10:03:45.085Z,23.5
2016-06-13T10:04:31.587Z,23.53
2016-06-13T10:05:31.748Z,23.53
2016-06-13T10:06:31.563Z,23.39
2016-06-13T10:07:31.754Z,23.54
2016-06-13T10:08:31.569Z,23.48
2016-06-13T10:09:31.651Z,23.55
2016-06-13T10:10:31.731Z,23.66
2016-06-13T10:11:31.641Z,23.72
2016-06-13T10:12:31.645Z,23.6
2016-06-13T10:13:31.601Z,23.53
2016-06-13T10:14:31.681Z,23.68
2016-06-13T10:15:31.668Z,23.5
2016-06-13T10:16:31.985Z,23.55
2016-06-13T10:17:32.706Z,23.68
2016-06-13T10:18:31.959Z,23.75
2016-06-13T10:19:31.743Z,23.76
2016-06-13T10:20:31.747Z,23.76
2016-06-13T10:21:31.797Z,23.87
2016-06-13T10:22:31.800Z,23.93
2016-06-13T10:23:31.646Z,23.93
2016-06-13T10:24:32.103Z,24
2016-06-13T10:25:31.824Z,23.94
2016-06-13T10:26:31.827Z,23.83
2016-06-13T10:27:32.065Z,23.83
2016-06-13T10:28:31.865Z,23.68
2016-06-13T10:29:32.275Z,23.7
2016-06-13T10:30:32.120Z,23.61
2016-06-13T10:31:32.218Z,23.61
2016-06-13T10:32:31.909Z,23.65
2016-06-13T10:33:32.130Z,23.53
2016-06-13T10:34:46.243Z,23.39
2016-06-13T10:35:31.997Z,23.42
2016-06-13T10:36:32.014Z,23.22
2016-06-13T10:37:32.049Z,23.31
2016-06-13T10:38:32.052Z,23.22
2016-06-13T10:39:32.258Z,23.17
2016-06-13T10:40:32.120Z,23.15
2016-06-13T10:41:32.859Z,23.07
2016-06-13T10:42:32.315Z,22.97
2016-06-13T10:43:32.146Z,22.92
2016-06-13T10:44:32.429Z,22.83
2016-06-13T10:45:32.152Z,22.83
2016-06-13T10:46:32.624Z,22.85
2016-06-13T10:47:46.423Z,22.8
2016-06-13T10:48:32.176Z,22.82
2016-06-13T10:49:32.320Z,22.82
2016-06-13T10:50:32.198Z,22.77
2016-06-13T10:51:32.201Z,22.9
2016-06-13T10:52:32.407Z,22.97
2016-06-13T10:53:32.441Z,23.02
2016-06-13T10:54:32.898Z,23.15
2016-06-13T10:55:45.886Z,23.19
2016-06-13T10:56:32.264Z,23.19
2016-06-13T10:57:32.283Z,23.25
2016-06-13T10:58:32.645Z,23.38
2016-06-13T10:59:32.585Z,23.55
2016-06-13T11:00:31.901Z,23.6
2016-06-13T11:01:32.357Z,23.65
2016-06-13T11:02:32.485Z,23.78
2016-06-13T11:03:32.394Z,23.85
2016-06-13T11:04:32.757Z,23.93
2016-06-13T11:05:32.447Z,23.97
2016-06-13T11:06:32.436Z,24.03
2016-06-13T11:07:32.532Z,24.12
2016-06-13T11:08:32.473Z,24.09
2016-06-13T11:09:32.523Z,24.22
2016-06-13T11:10:32.479Z,24.21
2016-06-13T11:11:32.497Z,24.35
2016-06-13T11:12:32.266Z,24.5
2016-06-13T11:13:47.113Z,24.53
2016-06-13T11:14:32.553Z,24.68
2016-06-13T11:15:32.603Z,24.71
2016-06-13T11:16:32.778Z,24.78
2016-06-13T11:17:46.875Z,24.91
2016-06-13T11:18:33.050Z,25.06
2016-06-13T11:19:32.615Z,25.13
2016-06-13T11:20:47.150Z,25.28
2016-06-13T11:21:32.903Z,25.36
2016-06-13T11:22:32.688Z,25.5
2016-06-13T11:23:32.721Z,25.57
2016-06-13T11:24:33.162Z,25.69
2016-06-13T11:26:32.965Z,25.95
2016-06-13T11:27:32.781Z,26.02
2016-06-13T11:28:33.487Z,26.06
2016-06-13T11:29:32.818Z,26.25
2016-06-13T11:30:33.727Z,26.21
2016-06-13T11:31:46.902Z,26.15
2016-06-13T11:32:32.843Z,26.13
2016-06-13T11:33:32.924Z,26.1
2016-06-13T11:34:32.397Z,26.09
2016-06-13T11:35:46.962Z,25.99
2016-06-13T11:36:32.512Z,25.9
2016-06-13T11:37:33.171Z,25.82
2016-06-13T11:38:32.987Z,25.75
2016-06-13T11:39:33.146Z,25.57
2016-06-13T11:40:32.961Z,25.45
2016-06-13T11:41:33.121Z,25.35
2016-06-13T11:42:48.124Z,25.18
2016-06-13T11:43:33.127Z,25.24
2016-06-13T11:44:34.162Z,25.08
2016-06-13T11:45:33.727Z,24.9
2016-06-13T11:46:33.589Z,24.9
2016-06-13T11:47:33.732Z,24.78
2016-06-13T11:48:47.829Z,24.69
2016-06-13T11:49:33.707Z,24.6
2016-06-13T11:50:33.351Z,24.55
2016-06-13T11:51:33.152Z,24.45
2016-06-13T11:52:33.170Z,24.32
2016-06-13T11:53:33.455Z,24.2
2016-06-13T11:54:32.926Z,24.09
2016-06-13T11:55:33.476Z,24.03
2016-06-13T11:56:33.292Z,23.97
2016-06-13T11:57:47.546Z,23.79
2016-06-13T11:58:33.579Z,23.75
2016-06-13T11:59:34.301Z,23.72
2016-06-13T12:00:33.304Z,23.6
2016-06-13T12:01:33.339Z,23.51
2016-06-13T12:02:34.358Z,23.43
2016-06-13T12:03:34.344Z,23.42
2016-06-13T12:04:33.348Z,23.2
2016-06-13T12:05:33.350Z,23.27
2016-06-13T12:06:33.384Z,23.15
2016-06-13T12:07:33.888Z,23.09
2016-06-13T12:08:47.782Z,22.95
2016-06-13T12:09:48.488Z,22.9
2016-06-13T12:10:48.397Z,22.79
2016-06-13T12:11:33.713Z,22.79
2016-06-13T12:12:33.591Z,22.64
2016-06-13T12:14:34.144Z,22.52
2016-06-13T12:15:47.866Z,22.43
2016-06-13T12:16:33.556Z,22.4
2016-06-13T12:17:33.543Z,22.42
2016-06-13T12:18:33.547Z,22.36
2016-06-13T12:19:33.566Z,22.33
2016-06-13T12:20:33.725Z,22.35
2016-06-13T12:21:33.587Z,22.37
2016-06-13T12:22:33.590Z,22.36
2016-06-13T12:23:33.781Z,22.36
2016-06-13T12:24:48.175Z,22.36
2016-06-13T12:25:47.913Z,22.43
2016-06-13T12:26:33.681Z,22.39
2016-06-13T12:27:33.668Z,22.4
2016-06-13T12:28:33.547Z,22.37
2016-06-13T12:29:34.191Z,22.45
2016-06-13T12:31:33.899Z,22.46
2016-06-13T12:32:33.715Z,22.46
2016-06-13T12:33:33.765Z,22.46
2016-06-13T12:34:33.809Z,22.47
2016-06-13T12:35:33.915Z,22.52
2016-06-13T12:36:33.958Z,22.51
2016-06-13T12:37:34.002Z,22.62
2016-06-13T12:38:34.010Z,22.65
2016-06-13T12:39:34.059Z,22.86
2016-06-13T12:40:33.608Z,22.88
2016-06-13T12:41:48.189Z,22.98
2016-06-13T12:42:48.410Z,22.95
2016-06-13T12:43:34.639Z,22.98
2016-06-13T12:44:47.756Z,22.98
2016-06-13T12:45:34.233Z,22.97
2016-06-13T12:46:34.647Z,22.92
2016-06-13T12:47:34.874Z,23.01
2016-06-13T12:48:34.458Z,23.02
2016-06-13T12:49:34.291Z,22.86
2016-06-13T12:50:34.468Z,22.9
2016-06-13T12:51:34.285Z,22.94
2016-06-13T12:52:34.775Z,22.8
2016-06-13T12:53:48.404Z,22.82
2016-06-13T12:55:34.615Z,22.75
2016-06-13T12:56:34.915Z,22.65
2016-06-13T12:57:48.497Z,22.61
2016-06-13T12:58:34.626Z,22.62
2016-06-13T12:59:35.004Z,22.75
2016-06-13T13:00:34.445Z,22.67
2016-06-13T13:01:34.433Z,22.64
2016-06-13T13:02:48.734Z,22.6
2016-06-13T13:03:35.111Z,22.61
2016-06-13T13:04:35.115Z,22.55
2016-06-13T13:06:34.511Z,22.51
2016-06-13T13:07:34.561Z,22.54
2016-06-13T13:08:34.940Z,22.45
2016-06-13T13:09:34.583Z,22.37
2016-06-13T13:10:48.837Z,22.33
2016-06-13T13:11:49.448Z,22.35
2016-06-13T13:12:34.827Z,22.35
2016-06-13T13:13:48.876Z,22.22
2016-06-13T13:14:34.630Z,22.28
2016-06-13T13:15:34.695Z,22.2
2016-06-13T13:16:34.652Z,22.21
2016-06-13T13:17:34.905Z,22.15
2016-06-13T13:18:34.204Z,22.09
2016-06-13T13:19:34.707Z,22.14
2016-06-13T13:20:35.335Z,22.17
2016-06-13T13:21:34.932Z,22.12
2016-06-13T13:22:34.951Z,22.02
2016-06-13T13:23:34.751Z,22.07
2016-06-13T13:24:49.301Z,22.06
2016-06-13T13:25:34.805Z,22.03
2016-06-13T13:27:34.810Z,22.06
2016-06-13T13:28:35.767Z,22.05
2016-06-13T13:29:35.551Z,22.03
2016-06-13T13:30:35.070Z,22.1
2016-06-13T13:31:35.151Z,22.15
2016-06-13T13:32:35.154Z,22.15
2016-06-13T13:33:34.719Z,22.18
2016-06-13T13:34:34.988Z,22.21
2016-06-13T13:35:34.929Z,22.31
2016-06-13T13:36:35.525Z,22.24
2016-06-13T13:38:35.391Z,22.45
2016-06-13T13:39:34.519Z,22.4
2016-06-13T13:40:34.991Z,22.47
2016-06-13T13:41:35.213Z,22.51
2016-06-13T13:43:35.078Z,22.61
2016-06-13T13:44:35.128Z,22.72
2016-06-13T13:45:35.037Z,22.58
2016-06-13T13:47:35.247Z,22.76
2016-06-13T13:48:35.093Z,22.76
2016-06-13T13:49:35.362Z,22.79
2016-06-13T13:50:35.115Z,22.8
2016-06-13T13:51:35.150Z,22.83
2016-06-13T13:52:35.325Z,22.92
2016-06-13T13:53:35.187Z,22.9
2016-06-13T13:54:50.331Z,22.98
2016-06-13T13:55:35.411Z,23.01
2016-06-13T13:56:35.227Z,23
2016-06-13T13:57:49.715Z,23.04
2016-06-13T13:58:35.234Z,22.95
2016-06-13T13:59:35.596Z,23.13
2016-06-13T14:00:35.458Z,23.13
2016-06-13T14:02:49.355Z,23.23